sensor_id;sensor_type;location;lat;lon;timestamp;P1;durP1;ratioP1;P2;durP2;ratioP2
59571;SDS011;59406;45.602;11.904;2023-02-15T00:00:25;97.03;;;50.83;;
59571;SDS011;59406;45.602;11.904;2023-02-15T00:02:51;84.63;;;46.80;;
59571;SDS011;59406;45.602;11.904;2023-02-15T00:05:17;89.18;;;43.90;;
59571;SDS011;59406;45.602;11.904;2023-02-15T00:07:43;86.88;;;45.58;;
59571;SDS011;59406;45.602;11.904;2023-02-15T00:10:09;78.70;;;36.92;;
59571;SDS011;59406;45.602;11.904;2023-02-15T00:12:37;93.20;;;50.73;;
59571;SDS011;59406;45.602;11.904;2023-02-15T00:15:03;72.22;;;38.92;;
59571;SDS011;59406;45.602;11.904;2023-02-15T00:17:29;71.07;;;38.30;;
59571;SDS011;59406;45.602;11.904;2023-02-15T00:19:55;71.32;;;35.33;;
59571;SDS011;59406;45.602;11.904;2023-02-15T00:24:56;69.95;;;39.15;;
59571;SDS011;59406;45.602;11.904;2023-02-15T00:29:55;95.07;;;48.80;;
59571;SDS011;59406;45.602;11.904;2023-02-15T00:32:21;96.80;;;48.13;;
59571;SDS011;59406;45.602;11.904;2023-02-15T00:34:47;77.13;;;38.38;;
59571;SDS011;59406;45.602;11.904;2023-02-15T00:37:13;76.05;;;38.60;;
59571;SDS011;59406;45.602;11.904;2023-02-15T00:39:39;73.57;;;40.97;;
59571;SDS011;59406;45.602;11.904;2023-02-15T00:42:05;70.03;;;35.00;;
59571;SDS011;59406;45.602;11.904;2023-02-15T00:44:31;78.28;;;40.97;;
59571;SDS011;59406;45.602;11.904;2023-02-15T00:46:57;93.03;;;47.70;;
59571;SDS011;59406;45.602;11.904;2023-02-15T00:49:23;69.47;;;35.33;;
59571;SDS011;59406;45.602;11.904;2023-02-15T00:51:49;79.78;;;41.90;;
59571;SDS011;59406;45.602;11.904;2023-02-15T00:54:15;63.60;;;35.67;;
59571;SDS011;59406;45.602;11.904;2023-02-15T00:56:41;87.75;;;47.80;;
59571;SDS011;59406;45.602;11.904;2023-02-15T00:59:08;101.20;;;54.27;;
59571;SDS011;59406;45.602;11.904;2023-02-15T01:01:34;93.63;;;48.60;;
59571;SDS011;59406;45.602;11.904;2023-02-15T01:04:00;83.95;;;46.55;;
59571;SDS011;59406;45.602;11.904;2023-02-15T01:06:26;79.80;;;44.03;;
59571;SDS011;59406;45.602;11.904;2023-02-15T01:08:52;63.00;;;34.93;;
59571;SDS011;59406;45.602;11.904;2023-02-15T01:11:20;60.50;;;32.17;;
59571;SDS011;59406;45.602;11.904;2023-02-15T01:13:48;64.90;;;34.72;;
59571;SDS011;59406;45.602;11.904;2023-02-15T01:16:15;68.30;;;36.40;;
59571;SDS011;59406;45.602;11.904;2023-02-15T01:18:41;58.47;;;30.23;;
59571;SDS011;59406;45.602;11.904;2023-02-15T01:21:14;60.85;;;32.70;;
59571;SDS011;59406;45.602;11.904;2023-02-15T01:23:41;49.85;;;26.55;;
59571;SDS011;59406;45.602;11.904;2023-02-15T01:26:08;62.40;;;33.53;;
59571;SDS011;59406;45.602;11.904;2023-02-15T01:28:35;77.63;;;43.55;;
59571;SDS011;59406;45.602;11.904;2023-02-15T01:31:11;95.97;;;49.47;;
59571;SDS011;59406;45.602;11.904;2023-02-15T01:33:39;91.45;;;47.78;;
59571;SDS011;59406;45.602;11.904;2023-02-15T01:36:05;108.03;;;54.10;;
59571;SDS011;59406;45.602;11.904;2023-02-15T01:38:31;85.93;;;44.75;;
59571;SDS011;59406;45.602;11.904;2023-02-15T01:40:58;96.43;;;52.63;;
59571;SDS011;59406;45.602;11.904;2023-02-15T01:43:43;74.00;;;37.30;;
59571;SDS011;59406;45.602;11.904;2023-02-15T01:46:11;84.18;;;42.35;;
59571;SDS011;59406;45.602;11.904;2023-02-15T01:48:43;70.45;;;36.92;;
59571;SDS011;59406;45.602;11.904;2023-02-15T01:53:49;61.30;;;34.72;;
59571;SDS011;59406;45.602;11.904;2023-02-15T01:56:27;61.70;;;29.70;;
59571;SDS011;59406;45.602;11.904;2023-02-15T01:58:56;70.75;;;36.92;;
59571;SDS011;59406;45.602;11.904;2023-02-15T02:01:26;65.70;;;34.03;;
59571;SDS011;59406;45.602;11.904;2023-02-15T02:04:15;61.45;;;35.13;;
59571;SDS011;59406;45.602;11.904;2023-02-15T02:06:41;67.60;;;38.88;;
59571;SDS011;59406;45.602;11.904;2023-02-15T02:09:09;62.17;;;35.70;;
59571;SDS011;59406;45.602;11.904;2023-02-15T02:11:35;63.63;;;36.05;;
59571;SDS011;59406;45.602;11.904;2023-02-15T02:14:01;67.53;;;33.22;;
59571;SDS011;59406;45.602;11.904;2023-02-15T02:27:10;77.85;;;39.00;;
59571;SDS011;59406;45.602;11.904;2023-02-15T02:38:48;76.40;;;42.45;;
59571;SDS011;59406;45.602;11.904;2023-02-15T02:49:41;73.78;;;35.83;;
59571;SDS011;59406;45.602;11.904;2023-02-15T02:58:03;59.58;;;29.20;;
59571;SDS011;59406;45.602;11.904;2023-02-15T03:01:35;56.00;;;26.97;;
59571;SDS011;59406;45.602;11.904;2023-02-15T03:03:45;64.63;;;32.15;;
59571;SDS011;59406;45.602;11.904;2023-02-15T03:06:20;65.63;;;34.22;;
59571;SDS011;59406;45.602;11.904;2023-02-15T03:08:53;65.40;;;34.47;;
59571;SDS011;59406;45.602;11.904;2023-02-15T03:11:26;70.82;;;39.60;;
59571;SDS011;59406;45.602;11.904;2023-02-15T03:13:51;96.80;;;48.57;;
59571;SDS011;59406;45.602;11.904;2023-02-15T03:16:18;78.30;;;38.65;;
59571;SDS011;59406;45.602;11.904;2023-02-15T03:19:02;88.22;;;43.95;;
59571;SDS011;59406;45.602;11.904;2023-02-15T03:24:28;95.20;;;48.70;;
59571;SDS011;59406;45.602;11.904;2023-02-15T03:26:53;94.88;;;48.88;;
59571;SDS011;59406;45.602;11.904;2023-02-15T03:29:22;111.88;;;56.67;;
59571;SDS011;59406;45.602;11.904;2023-02-15T03:31:54;91.40;;;49.53;;
59571;SDS011;59406;45.602;11.904;2023-02-15T03:34:24;84.20;;;45.05;;
59571;SDS011;59406;45.602;11.904;2023-02-15T03:37:00;82.73;;;40.80;;
59571;SDS011;59406;45.602;11.904;2023-02-15T03:39:37;100.57;;;51.88;;
59571;SDS011;59406;45.602;11.904;2023-02-15T03:44:53;93.22;;;48.80;;
59571;SDS011;59406;45.602;11.904;2023-02-15T03:47:25;92.18;;;47.08;;
59571;SDS011;59406;45.602;11.904;2023-02-15T03:49:57;89.13;;;47.97;;
59571;SDS011;59406;45.602;11.904;2023-02-15T03:52:51;77.10;;;39.75;;
59571;SDS011;59406;45.602;11.904;2023-02-15T03:55:17;99.57;;;54.25;;
59571;SDS011;59406;45.602;11.904;2023-02-15T03:57:43;109.78;;;55.47;;
59571;SDS011;59406;45.602;11.904;2023-02-15T04:00:28;72.90;;;39.63;;
59571;SDS011;59406;45.602;11.904;2023-02-15T04:06:17;101.03;;;54.00;;
59571;SDS011;59406;45.602;11.904;2023-02-15T04:08:43;108.70;;;55.00;;
59571;SDS011;59406;45.602;11.904;2023-02-15T04:11:27;72.32;;;36.92;;
59571;SDS011;59406;45.602;11.904;2023-02-15T04:13:53;93.67;;;49.33;;
59571;SDS011;59406;45.602;11.904;2023-02-15T04:16:24;93.13;;;49.13;;
59571;SDS011;59406;45.602;11.904;2023-02-15T04:18:50;88.47;;;42.60;;
59571;SDS011;59406;45.602;11.904;2023-02-15T04:21:35;70.78;;;40.08;;
59571;SDS011;59406;45.602;11.904;2023-02-15T04:24:19;76.43;;;37.97;;
59571;SDS011;59406;45.602;11.904;2023-02-15T04:27:04;104.82;;;55.50;;
59571;SDS011;59406;45.602;11.904;2023-02-15T04:29:31;87.50;;;47.90;;
59571;SDS011;59406;45.602;11.904;2023-02-15T04:31:58;87.25;;;43.03;;
59571;SDS011;59406;45.602;11.904;2023-02-15T04:34:25;71.95;;;38.38;;
59571;SDS011;59406;45.602;11.904;2023-02-15T04:36:51;84.03;;;41.97;;
59571;SDS011;59406;45.602;11.904;2023-02-15T04:39:17;88.50;;;47.08;;
59571;SDS011;59406;45.602;11.904;2023-02-15T04:41:44;112.75;;;58.70;;
59571;SDS011;59406;45.602;11.904;2023-02-15T04:44:10;80.28;;;40.45;;
59571;SDS011;59406;45.602;11.904;2023-02-15T04:46:37;80.13;;;43.63;;
59571;SDS011;59406;45.602;11.904;2023-02-15T04:49:03;77.67;;;41.30;;
59571;SDS011;59406;45.602;11.904;2023-02-15T04:51:29;112.38;;;55.88;;
59571;SDS011;59406;45.602;11.904;2023-02-15T04:53:55;79.85;;;42.25;;
59571;SDS011;59406;45.602;11.904;2023-02-15T04:56:21;113.07;;;55.22;;
59571;SDS011;59406;45.602;11.904;2023-02-15T04:58:47;92.83;;;49.87;;
59571;SDS011;59406;45.602;11.904;2023-02-15T05:01:13;77.57;;;40.55;;
59571;SDS011;59406;45.602;11.904;2023-02-15T05:03:39;70.78;;;37.65;;
59571;SDS011;59406;45.602;11.904;2023-02-15T05:06:05;74.77;;;36.50;;
59571;SDS011;59406;45.602;11.904;2023-02-15T05:08:31;68.60;;;35.92;;
59571;SDS011;59406;45.602;11.904;2023-02-15T05:10:57;67.20;;;35.65;;
59571;SDS011;59406;45.602;11.904;2023-02-15T05:13:23;56.47;;;29.47;;
59571;SDS011;59406;45.602;11.904;2023-02-15T05:15:50;66.30;;;34.37;;
59571;SDS011;59406;45.602;11.904;2023-02-15T05:18:17;79.72;;;39.65;;
59571;SDS011;59406;45.602;11.904;2023-02-15T05:20:44;94.45;;;47.88;;
59571;SDS011;59406;45.602;11.904;2023-02-15T05:23:10;68.55;;;35.60;;
59571;SDS011;59406;45.602;11.904;2023-02-15T05:25:36;90.38;;;47.70;;
59571;SDS011;59406;45.602;11.904;2023-02-15T05:28:22;76.13;;;37.00;;
59571;SDS011;59406;45.602;11.904;2023-02-15T05:30:58;60.30;;;33.72;;
59571;SDS011;59406;45.602;11.904;2023-02-15T05:33:28;59.83;;;31.17;;
59571;SDS011;59406;45.602;11.904;2023-02-15T05:35:54;61.72;;;33.83;;
59571;SDS011;59406;45.602;11.904;2023-02-15T05:38:20;66.10;;;34.27;;
59571;SDS011;59406;45.602;11.904;2023-02-15T05:40:46;94.18;;;47.55;;
59571;SDS011;59406;45.602;11.904;2023-02-15T05:43:12;73.65;;;36.15;;
59571;SDS011;59406;45.602;11.904;2023-02-15T05:45:38;66.65;;;33.72;;
59571;SDS011;59406;45.602;11.904;2023-02-15T05:48:04;60.57;;;33.53;;
59571;SDS011;59406;45.602;11.904;2023-02-15T05:50:29;88.80;;;46.97;;
59571;SDS011;59406;45.602;11.904;2023-02-15T05:52:55;80.33;;;42.97;;
59571;SDS011;59406;45.602;11.904;2023-02-15T05:55:21;72.35;;;34.35;;
59571;SDS011;59406;45.602;11.904;2023-02-15T05:57:48;74.22;;;37.70;;
59571;SDS011;59406;45.602;11.904;2023-02-15T06:00:14;71.53;;;37.30;;
59571;SDS011;59406;45.602;11.904;2023-02-15T06:02:40;80.10;;;39.63;;
59571;SDS011;59406;45.602;11.904;2023-02-15T06:05:06;85.28;;;44.45;;
59571;SDS011;59406;45.602;11.904;2023-02-15T06:07:33;81.15;;;42.53;;
59571;SDS011;59406;45.602;11.904;2023-02-15T06:09:59;79.00;;;41.33;;
59571;SDS011;59406;45.602;11.904;2023-02-15T06:12:25;81.30;;;41.83;;
59571;SDS011;59406;45.602;11.904;2023-02-15T06:14:51;68.40;;;34.43;;
59571;SDS011;59406;45.602;11.904;2023-02-15T06:17:17;96.25;;;47.85;;
59571;SDS011;59406;45.602;11.904;2023-02-15T06:19:42;76.47;;;38.83;;
59571;SDS011;59406;45.602;11.904;2023-02-15T06:22:08;73.50;;;37.23;;
59571;SDS011;59406;45.602;11.904;2023-02-15T06:24:34;66.83;;;34.80;;
59571;SDS011;59406;45.602;11.904;2023-02-15T06:27:00;93.72;;;46.22;;
59571;SDS011;59406;45.602;11.904;2023-02-15T06:29:26;75.13;;;37.60;;
59571;SDS011;59406;45.602;11.904;2023-02-15T06:31:52;85.03;;;42.00;;
59571;SDS011;59406;45.602;11.904;2023-02-15T06:34:18;76.82;;;40.47;;
59571;SDS011;59406;45.602;11.904;2023-02-15T06:36:44;92.25;;;45.70;;
59571;SDS011;59406;45.602;11.904;2023-02-15T06:39:10;91.70;;;44.13;;
59571;SDS011;59406;45.602;11.904;2023-02-15T06:41:36;89.28;;;44.33;;
59571;SDS011;59406;45.602;11.904;2023-02-15T06:44:02;84.05;;;41.90;;
59571;SDS011;59406;45.602;11.904;2023-02-15T06:46:28;85.90;;;43.13;;
59571;SDS011;59406;45.602;11.904;2023-02-15T06:48:54;82.57;;;41.70;;
59571;SDS011;59406;45.602;11.904;2023-02-15T06:51:19;71.90;;;37.88;;
59571;SDS011;59406;45.602;11.904;2023-02-15T06:53:45;83.27;;;41.83;;
59571;SDS011;59406;45.602;11.904;2023-02-15T06:56:11;79.70;;;39.22;;
59571;SDS011;59406;45.602;11.904;2023-02-15T06:58:38;77.07;;;41.03;;
59571;SDS011;59406;45.602;11.904;2023-02-15T07:01:06;82.25;;;42.47;;
59571;SDS011;59406;45.602;11.904;2023-02-15T07:03:32;65.53;;;35.17;;
59571;SDS011;59406;45.602;11.904;2023-02-15T07:05:59;78.37;;;39.83;;
59571;SDS011;59406;45.602;11.904;2023-02-15T07:08:27;79.43;;;41.03;;
59571;SDS011;59406;45.602;11.904;2023-02-15T07:10:54;73.75;;;38.05;;
59571;SDS011;59406;45.602;11.904;2023-02-15T07:13:41;87.78;;;44.33;;
59571;SDS011;59406;45.602;11.904;2023-02-15T07:16:08;73.00;;;39.17;;
59571;SDS011;59406;45.602;11.904;2023-02-15T07:18:35;69.47;;;38.80;;
59571;SDS011;59406;45.602;11.904;2023-02-15T07:21:01;72.47;;;37.45;;
59571;SDS011;59406;45.602;11.904;2023-02-15T07:23:27;67.07;;;37.05;;
59571;SDS011;59406;45.602;11.904;2023-02-15T07:25:56;64.22;;;36.53;;
59571;SDS011;59406;45.602;11.904;2023-02-15T07:28:23;72.95;;;39.55;;
59571;SDS011;59406;45.602;11.904;2023-02-15T07:30:50;55.37;;;31.97;;
59571;SDS011;59406;45.602;11.904;2023-02-15T07:33:16;60.40;;;36.70;;
59571;SDS011;59406;45.602;11.904;2023-02-15T07:35:51;69.85;;;39.67;;
59571;SDS011;59406;45.602;11.904;2023-02-15T07:38:19;85.43;;;44.45;;
59571;SDS011;59406;45.602;11.904;2023-02-15T07:40:45;77.40;;;41.60;;
59571;SDS011;59406;45.602;11.904;2023-02-15T07:43:11;81.03;;;42.30;;
59571;SDS011;59406;45.602;11.904;2023-02-15T07:45:38;73.30;;;39.92;;
59571;SDS011;59406;45.602;11.904;2023-02-15T07:48:04;69.63;;;40.35;;
59571;SDS011;59406;45.602;11.904;2023-02-15T07:50:31;56.78;;;32.45;;
59571;SDS011;59406;45.602;11.904;2023-02-15T07:52:57;60.08;;;35.95;;
59571;SDS011;59406;45.602;11.904;2023-02-15T07:55:24;69.73;;;41.80;;
59571;SDS011;59406;45.602;11.904;2023-02-15T07:57:50;69.10;;;40.22;;
59571;SDS011;59406;45.602;11.904;2023-02-15T08:00:17;65.00;;;38.13;;
59571;SDS011;59406;45.602;11.904;2023-02-15T08:02:51;47.97;;;28.60;;
59571;SDS011;59406;45.602;11.904;2023-02-15T08:05:37;45.90;;;26.45;;
59571;SDS011;59406;45.602;11.904;2023-02-15T08:08:04;43.73;;;25.17;;
59571;SDS011;59406;45.602;11.904;2023-02-15T08:10:30;48.80;;;25.27;;
59571;SDS011;59406;45.602;11.904;2023-02-15T08:13:15;43.08;;;23.73;;
59571;SDS011;59406;45.602;11.904;2023-02-15T08:15:47;38.20;;;23.05;;
59571;SDS011;59406;45.602;11.904;2023-02-15T08:18:16;40.10;;;23.43;;
59571;SDS011;59406;45.602;11.904;2023-02-15T08:20:48;46.58;;;25.65;;
59571;SDS011;59406;45.602;11.904;2023-02-15T08:23:14;43.95;;;24.88;;
59571;SDS011;59406;45.602;11.904;2023-02-15T08:25:40;52.92;;;28.45;;
59571;SDS011;59406;45.602;11.904;2023-02-15T08:28:06;47.50;;;26.37;;
59571;SDS011;59406;45.602;11.904;2023-02-15T08:30:32;58.30;;;32.13;;
59571;SDS011;59406;45.602;11.904;2023-02-15T08:32:58;47.90;;;24.85;;
59571;SDS011;59406;45.602;11.904;2023-02-15T08:35:24;41.67;;;23.00;;
59571;SDS011;59406;45.602;11.904;2023-02-15T08:37:50;52.67;;;28.50;;
59571;SDS011;59406;45.602;11.904;2023-02-15T08:40:16;44.17;;;24.95;;
59571;SDS011;59406;45.602;11.904;2023-02-15T08:42:42;46.83;;;27.30;;
59571;SDS011;59406;45.602;11.904;2023-02-15T08:45:08;50.75;;;26.98;;
59571;SDS011;59406;45.602;11.904;2023-02-15T08:47:34;47.90;;;25.55;;
59571;SDS011;59406;45.602;11.904;2023-02-15T08:50:00;49.28;;;28.90;;
59571;SDS011;59406;45.602;11.904;2023-02-15T08:52:26;48.83;;;26.73;;
59571;SDS011;59406;45.602;11.904;2023-02-15T08:54:52;51.45;;;29.38;;
59571;SDS011;59406;45.602;11.904;2023-02-15T08:57:18;50.78;;;29.15;;
59571;SDS011;59406;45.602;11.904;2023-02-15T08:59:44;50.95;;;31.00;;
59571;SDS011;59406;45.602;11.904;2023-02-15T09:02:10;53.93;;;32.97;;
59571;SDS011;59406;45.602;11.904;2023-02-15T09:04:36;48.20;;;30.27;;
59571;SDS011;59406;45.602;11.904;2023-02-15T09:07:02;48.60;;;29.95;;
59571;SDS011;59406;45.602;11.904;2023-02-15T09:09:29;46.92;;;30.77;;
59571;SDS011;59406;45.602;11.904;2023-02-15T09:11:57;53.27;;;32.87;;
59571;SDS011;59406;45.602;11.904;2023-02-15T09:14:22;50.28;;;30.80;;
59571;SDS011;59406;45.602;11.904;2023-02-15T09:16:51;50.35;;;31.35;;
59571;SDS011;59406;45.602;11.904;2023-02-15T09:19:19;49.38;;;32.13;;
59571;SDS011;59406;45.602;11.904;2023-02-15T09:21:46;57.93;;;33.93;;
59571;SDS011;59406;45.602;11.904;2023-02-15T09:24:13;53.03;;;33.75;;
59571;SDS011;59406;45.602;11.904;2023-02-15T09:26:41;51.53;;;32.25;;
59571;SDS011;59406;45.602;11.904;2023-02-15T09:29:08;54.35;;;34.35;;
59571;SDS011;59406;45.602;11.904;2023-02-15T09:31:42;46.67;;;30.42;;
59571;SDS011;59406;45.602;11.904;2023-02-15T09:34:13;50.80;;;32.10;;
59571;SDS011;59406;45.602;11.904;2023-02-15T09:36:43;42.15;;;26.63;;
59571;SDS011;59406;45.602;11.904;2023-02-15T09:39:13;40.85;;;25.55;;
59571;SDS011;59406;45.602;11.904;2023-02-15T10:01:08;32.90;;;21.43;;
59571;SDS011;59406;45.602;11.904;2023-02-15T10:06:25;37.20;;;24.50;;
59571;SDS011;59406;45.602;11.904;2023-02-15T10:09:20;40.30;;;26.70;;
59571;SDS011;59406;45.602;11.904;2023-02-15T10:15:13;39.27;;;24.77;;
59571;SDS011;59406;45.602;11.904;2023-02-15T10:20:35;37.65;;;24.58;;
59571;SDS011;59406;45.602;11.904;2023-02-15T10:28:55;41.50;;;27.00;;
59571;SDS011;59406;45.602;11.904;2023-02-15T10:39:41;40.42;;;28.27;;
59571;SDS011;59406;45.602;11.904;2023-02-15T10:48:06;43.25;;;29.63;;
59571;SDS011;59406;45.602;11.904;2023-02-15T10:50:55;43.95;;;30.20;;
59571;SDS011;59406;45.602;11.904;2023-02-15T10:59:18;46.28;;;30.20;;
59571;SDS011;59406;45.602;11.904;2023-02-15T11:05:16;41.60;;;27.48;;
59571;SDS011;59406;45.602;11.904;2023-02-15T11:07:48;39.10;;;26.40;;
59571;SDS011;59406;45.602;11.904;2023-02-15T11:13:04;34.47;;;23.80;;
59571;SDS011;59406;45.602;11.904;2023-02-15T11:15:36;35.88;;;24.40;;
59571;SDS011;59406;45.602;11.904;2023-02-15T11:23:18;37.83;;;24.37;;
59571;SDS011;59406;45.602;11.904;2023-02-15T11:25:45;36.17;;;23.45;;
59571;SDS011;59406;45.602;11.904;2023-02-15T11:28:22;31.17;;;22.60;;
59571;SDS011;59406;45.602;11.904;2023-02-15T11:30:54;30.55;;;20.60;;
59571;SDS011;59406;45.602;11.904;2023-02-15T11:33:26;30.60;;;22.38;;
59571;SDS011;59406;45.602;11.904;2023-02-15T11:35:58;34.87;;;24.40;;
59571;SDS011;59406;45.602;11.904;2023-02-15T11:38:30;31.48;;;21.42;;
59571;SDS011;59406;45.602;11.904;2023-02-15T11:41:05;32.05;;;23.00;;
59571;SDS011;59406;45.602;11.904;2023-02-15T11:43:53;31.13;;;22.70;;
59571;SDS011;59406;45.602;11.904;2023-02-15T11:46:21;31.83;;;22.60;;
59571;SDS011;59406;45.602;11.904;2023-02-15T11:48:47;29.67;;;20.70;;
59571;SDS011;59406;45.602;11.904;2023-02-15T11:51:14;30.00;;;21.42;;
59571;SDS011;59406;45.602;11.904;2023-02-15T11:53:44;35.92;;;24.90;;
59571;SDS011;59406;45.602;11.904;2023-02-15T11:56:18;31.58;;;22.13;;
59571;SDS011;59406;45.602;11.904;2023-02-15T11:59:03;29.67;;;21.88;;
59571;SDS011;59406;45.602;11.904;2023-02-15T12:01:43;35.30;;;23.57;;
59571;SDS011;59406;45.602;11.904;2023-02-15T12:04:16;33.90;;;23.98;;
59571;SDS011;59406;45.602;11.904;2023-02-15T12:09:37;33.05;;;23.08;;
59571;SDS011;59406;45.602;11.904;2023-02-15T12:12:21;38.15;;;25.40;;
59571;SDS011;59406;45.602;11.904;2023-02-15T12:14:50;33.47;;;23.83;;
59571;SDS011;59406;45.602;11.904;2023-02-15T12:17:20;35.28;;;25.05;;
59571;SDS011;59406;45.602;11.904;2023-02-15T12:19:56;32.95;;;24.15;;
59571;SDS011;59406;45.602;11.904;2023-02-15T12:22:27;34.83;;;23.63;;
59571;SDS011;59406;45.602;11.904;2023-02-15T12:25:00;34.85;;;24.67;;
59571;SDS011;59406;45.602;11.904;2023-02-15T12:27:45;35.03;;;24.50;;
59571;SDS011;59406;45.602;11.904;2023-02-15T12:32:54;32.85;;;23.77;;
59571;SDS011;59406;45.602;11.904;2023-02-15T12:35:31;27.45;;;19.35;;
59571;SDS011;59406;45.602;11.904;2023-02-15T12:38:01;36.65;;;22.92;;
59571;SDS011;59406;45.602;11.904;2023-02-15T12:40:36;34.77;;;23.77;;
59571;SDS011;59406;45.602;11.904;2023-02-15T12:43:03;31.85;;;22.20;;
59571;SDS011;59406;45.602;11.904;2023-02-15T12:45:34;31.17;;;21.00;;
59571;SDS011;59406;45.602;11.904;2023-02-15T12:48:09;31.02;;;22.63;;
59571;SDS011;59406;45.602;11.904;2023-02-15T12:50:39;28.83;;;20.98;;
59571;SDS011;59406;45.602;11.904;2023-02-15T12:56:08;30.13;;;21.08;;
59571;SDS011;59406;45.602;11.904;2023-02-15T12:58:36;32.03;;;21.75;;
59571;SDS011;59406;45.602;11.904;2023-02-15T13:03:38;35.47;;;22.95;;
59571;SDS011;59406;45.602;11.904;2023-02-15T13:06:25;28.47;;;20.63;;
59571;SDS011;59406;45.602;11.904;2023-02-15T13:08:52;30.08;;;21.17;;
59571;SDS011;59406;45.602;11.904;2023-02-15T13:11:22;35.17;;;23.67;;
59571;SDS011;59406;45.602;11.904;2023-02-15T13:13:53;28.27;;;21.25;;
59571;SDS011;59406;45.602;11.904;2023-02-15T13:16:24;32.00;;;21.45;;
59571;SDS011;59406;45.602;11.904;2023-02-15T13:18:57;28.03;;;20.20;;
59571;SDS011;59406;45.602;11.904;2023-02-15T13:21:30;25.77;;;18.23;;
59571;SDS011;59406;45.602;11.904;2023-02-15T13:24:02;35.42;;;24.02;;
59571;SDS011;59406;45.602;11.904;2023-02-15T13:26:32;36.20;;;23.27;;
59571;SDS011;59406;45.602;11.904;2023-02-15T13:29:01;33.65;;;23.70;;
59571;SDS011;59406;45.602;11.904;2023-02-15T13:31:38;31.70;;;21.37;;
59571;SDS011;59406;45.602;11.904;2023-02-15T13:34:12;34.65;;;25.02;;
59571;SDS011;59406;45.602;11.904;2023-02-15T13:47:42;29.70;;;19.67;;
59571;SDS011;59406;45.602;11.904;2023-02-15T13:59:00;32.72;;;22.50;;
59571;SDS011;59406;45.602;11.904;2023-02-15T14:05:05;34.97;;;22.15;;
59571;SDS011;59406;45.602;11.904;2023-02-15T14:07:18;30.58;;;20.33;;
59571;SDS011;59406;45.602;11.904;2023-02-15T14:21:21;28.52;;;19.42;;
59571;SDS011;59406;45.602;11.904;2023-02-15T14:26:50;36.30;;;23.95;;
59571;SDS011;59406;45.602;11.904;2023-02-15T14:32:12;37.47;;;25.23;;
59571;SDS011;59406;45.602;11.904;2023-02-15T14:34:44;40.55;;;25.98;;
59571;SDS011;59406;45.602;11.904;2023-02-15T14:37:19;36.58;;;23.15;;
59571;SDS011;59406;45.602;11.904;2023-02-15T14:42:47;33.15;;;21.48;;
59571;SDS011;59406;45.602;11.904;2023-02-15T14:45:22;41.30;;;26.50;;
59571;SDS011;59406;45.602;11.904;2023-02-15T14:47:57;40.28;;;24.83;;
59571;SDS011;59406;45.602;11.904;2023-02-15T14:50:37;34.20;;;22.05;;
59571;SDS011;59406;45.602;11.904;2023-02-15T15:01:31;40.25;;;24.48;;
59571;SDS011;59406;45.602;11.904;2023-02-15T15:04:06;36.42;;;23.30;;
59571;SDS011;59406;45.602;11.904;2023-02-15T15:06:38;36.45;;;23.05;;
59571;SDS011;59406;45.602;11.904;2023-02-15T15:11:40;33.60;;;20.80;;
59571;SDS011;59406;45.602;11.904;2023-02-15T15:14:35;30.80;;;19.70;;
59571;SDS011;59406;45.602;11.904;2023-02-15T15:16:56;40.38;;;23.33;;
59571;SDS011;59406;45.602;11.904;2023-02-15T15:22:24;43.33;;;23.10;;
59571;SDS011;59406;45.602;11.904;2023-02-15T15:32:54;39.75;;;22.85;;
59571;SDS011;59406;45.602;11.904;2023-02-15T15:35:55;34.83;;;20.20;;
59571;SDS011;59406;45.602;11.904;2023-02-15T15:44:16;43.25;;;22.75;;
59571;SDS011;59406;45.602;11.904;2023-02-15T15:49:15;39.07;;;20.30;;
59571;SDS011;59406;45.602;11.904;2023-02-15T15:51:44;44.55;;;24.38;;
59571;SDS011;59406;45.602;11.904;2023-02-15T15:54:15;40.40;;;21.63;;
59571;SDS011;59406;45.602;11.904;2023-02-15T15:56:47;37.17;;;20.27;;
59571;SDS011;59406;45.602;11.904;2023-02-15T15:59:26;41.37;;;21.67;;
59571;SDS011;59406;45.602;11.904;2023-02-15T16:02:03;36.60;;;18.63;;
59571;SDS011;59406;45.602;11.904;2023-02-15T16:04:31;35.00;;;18.73;;
59571;SDS011;59406;45.602;11.904;2023-02-15T16:09:54;48.38;;;25.33;;
59571;SDS011;59406;45.602;11.904;2023-02-15T16:12:23;48.63;;;24.93;;
59571;SDS011;59406;45.602;11.904;2023-02-15T16:14:50;39.80;;;21.30;;
59571;SDS011;59406;45.602;11.904;2023-02-15T16:17:19;37.97;;;18.85;;
59571;SDS011;59406;45.602;11.904;2023-02-15T16:19:48;38.58;;;18.80;;
59571;SDS011;59406;45.602;11.904;2023-02-15T16:22:34;30.98;;;16.67;;
59571;SDS011;59406;45.602;11.904;2023-02-15T16:27:44;34.97;;;19.08;;
59571;SDS011;59406;45.602;11.904;2023-02-15T16:32:55;35.13;;;18.83;;
59571;SDS011;59406;45.602;11.904;2023-02-15T16:35:31;31.45;;;17.05;;
59571;SDS011;59406;45.602;11.904;2023-02-15T16:37:57;32.60;;;16.73;;
59571;SDS011;59406;45.602;11.904;2023-02-15T16:42:49;30.88;;;14.70;;
59571;SDS011;59406;45.602;11.904;2023-02-15T16:45:22;43.03;;;20.33;;
59571;SDS011;59406;45.602;11.904;2023-02-15T16:47:52;37.55;;;17.88;;
59571;SDS011;59406;45.602;11.904;2023-02-15T16:50:39;35.92;;;17.17;;
59571;SDS011;59406;45.602;11.904;2023-02-15T16:53:14;31.67;;;16.63;;
59571;SDS011;59406;45.602;11.904;2023-02-15T16:55:49;30.55;;;15.00;;
59571;SDS011;59406;45.602;11.904;2023-02-15T16:58:20;30.30;;;14.37;;
59571;SDS011;59406;45.602;11.904;2023-02-15T17:01:02;29.13;;;14.82;;
59571;SDS011;59406;45.602;11.904;2023-02-15T17:03:30;29.92;;;15.82;;
59571;SDS011;59406;45.602;11.904;2023-02-15T17:05:59;29.30;;;13.93;;
59571;SDS011;59406;45.602;11.904;2023-02-15T17:08:29;30.50;;;15.27;;
59571;SDS011;59406;45.602;11.904;2023-02-15T17:13:37;50.47;;;23.63;;
59571;SDS011;59406;45.602;11.904;2023-02-15T17:18:34;37.47;;;19.20;;
59571;SDS011;59406;45.602;11.904;2023-02-15T17:21:18;35.10;;;16.00;;
59571;SDS011;59406;45.602;11.904;2023-02-15T17:23:47;39.90;;;19.30;;
59571;SDS011;59406;45.602;11.904;2023-02-15T17:26:15;39.45;;;18.92;;
59571;SDS011;59406;45.602;11.904;2023-02-15T17:28:47;33.85;;;15.75;;
59571;SDS011;59406;45.602;11.904;2023-02-15T17:31:18;29.50;;;15.07;;
59571;SDS011;59406;45.602;11.904;2023-02-15T17:33:45;36.27;;;17.53;;
59571;SDS011;59406;45.602;11.904;2023-02-15T17:41:30;45.10;;;21.40;;
59571;SDS011;59406;45.602;11.904;2023-02-15T17:43:59;44.00;;;21.23;;
59571;SDS011;59406;45.602;11.904;2023-02-15T17:46:25;39.13;;;18.83;;
59571;SDS011;59406;45.602;11.904;2023-02-15T17:48:58;58.50;;;27.48;;
59571;SDS011;59406;45.602;11.904;2023-02-15T17:51:24;66.53;;;30.52;;
59571;SDS011;59406;45.602;11.904;2023-02-15T17:53:50;51.23;;;22.50;;
59571;SDS011;59406;45.602;11.904;2023-02-15T17:56:35;50.20;;;22.35;;
59571;SDS011;59406;45.602;11.904;2023-02-15T17:59:03;40.38;;;18.27;;
59571;SDS011;59406;45.602;11.904;2023-02-15T18:01:32;33.38;;;16.60;;
59571;SDS011;59406;45.602;11.904;2023-02-15T18:04:18;29.92;;;16.00;;
59571;SDS011;59406;45.602;11.904;2023-02-15T18:07:04;61.33;;;26.77;;